Aeroporto :
LOGIN :

Iscrizione | Disclaimer

   EN    FR    IT 

 










Sommario :    VFR   VFR Marginale   IFR   IFR Intensivo   IFR Molto Intensivo
Visibilità : 
Base nubi : 
>= 8 km
>= 3000ft
5 / 8 km
1000 / 3000 ft
1500m / 5 km
500 / 1000 ft
800 / 1500m
200 / 500 ft
< 800m
< 200 ft
Simboli :   Temporali  Nebbia  Neve Forte  Precipitazioni Forti  Vento > 20 kt
SIGMETs :   Varie  Temporali  Ghiacco  Turbolenza  Onda orograficha  Ceneri Vulcaniche






- Altitudine del aeroporto : 995 ft
- Codice IATA : KTW


EPKT - Katowice

ULTIMO METAR :
  • 210030Z 16008KT CAVOK 01/M03 Q1016

METARs OBSOLETI :
  • 210000Z 15007KT CAVOK 01/M03 Q1016
  • 202330Z 15008KT CAVOK M00/M03 Q1017
  • 202300Z 15008KT 8000 NSC M00/M03 Q1017
  • 202230Z 15009KT 8000 NSC M00/M03 Q1017
  • 202200Z 15009KT 140V200 7000 NSC 00/M02 Q1018

TAF TAF EPKT
Valido dal 21 a 00 ore il 22 a 00 ore UTC


202330Z 2100/2124 17007KT CAVOK
BECMG 2105/2108 28017G33KT 3000 SNRA BKN006 BKN014
BECMG 2112/2115 28007KT 8000 NSW BKN020
TEMPO 2112/2117 4000 SHRA BKN013CB



MetMap, La meteo Aeronautica in un colpo d'occhio ! - Copyright ORBIFLY Dicembre 2007 - Disclaimer

ORBIFLY MET'MAP TEAM :

Programmazione e sviluppo : Alexandra Zaïnal
Concezione : Baudouin d'Aumeries
Aiuto per la programmazione : Marc-Olivier Méhu
Supporto tecnico e logistico : Manuel Goepfert
Aiuto per la traduzione : Arnaldo La Scala

Contatto : metmap@orbifly.com




FONTI E CREDITI :

   NOAA